sensor_id;sensor_type;location;lat;lon;timestamp;P1;durP1;ratioP1;P2;durP2;ratioP2
16099;SDS011;8154;50.830;12.082;2023-04-06T00:00:07;1.50;;;1.40;;
16099;SDS011;8154;50.830;12.082;2023-04-06T00:02:34;1.70;;;1.60;;
16099;SDS011;8154;50.830;12.082;2023-04-06T00:05:01;1.50;;;1.40;;
16099;SDS011;8154;50.830;12.082;2023-04-06T00:07:47;1.70;;;1.60;;
16099;SDS011;8154;50.830;12.082;2023-04-06T00:10:15;1.42;;;1.33;;
16099;SDS011;8154;50.830;12.082;2023-04-06T00:12:44;1.60;;;1.50;;
16099;SDS011;8154;50.830;12.082;2023-04-06T00:15:10;1.60;;;1.50;;
16099;SDS011;8154;50.830;12.082;2023-04-06T00:17:48;1.70;;;1.60;;
16099;SDS011;8154;50.830;12.082;2023-04-06T00:20:21;1.50;;;1.40;;
16099;SDS011;8154;50.830;12.082;2023-04-06T00:23:06;1.60;;;1.50;;
16099;SDS011;8154;50.830;12.082;2023-04-06T00:25:36;1.67;;;1.58;;
16099;SDS011;8154;50.830;12.082;2023-04-06T00:28:02;1.48;;;1.38;;
16099;SDS011;8154;50.830;12.082;2023-04-06T00:30:30;1.70;;;1.60;;
16099;SDS011;8154;50.830;12.082;2023-04-06T00:32:57;1.60;;;1.50;;
16099;SDS011;8154;50.830;12.082;2023-04-06T00:35:24;1.48;;;1.38;;
16099;SDS011;8154;50.830;12.082;2023-04-06T00:37:53;1.60;;;1.50;;
16099;SDS011;8154;50.830;12.082;2023-04-06T00:40:19;1.60;;;1.50;;
16099;SDS011;8154;50.830;12.082;2023-04-06T00:42:46;1.40;;;1.30;;
16099;SDS011;8154;50.830;12.082;2023-04-06T00:45:14;1.50;;;1.40;;
16099;SDS011;8154;50.830;12.082;2023-04-06T00:47:42;1.58;;;1.48;;
16099;SDS011;8154;50.830;12.082;2023-04-06T00:50:10;1.60;;;1.50;;
16099;SDS011;8154;50.830;12.082;2023-04-06T00:52:36;1.50;;;1.40;;
16099;SDS011;8154;50.830;12.082;2023-04-06T00:55:04;1.50;;;1.40;;
16099;SDS011;8154;50.830;12.082;2023-04-06T00:57:31;1.70;;;1.60;;
16099;SDS011;8154;50.830;12.082;2023-04-06T00:59:58;1.60;;;1.50;;
16099;SDS011;8154;50.830;12.082;2023-04-06T01:02:25;1.63;;;1.52;;
16099;SDS011;8154;50.830;12.082;2023-04-06T01:04:53;1.38;;;1.27;;
16099;SDS011;8154;50.830;12.082;2023-04-06T01:07:23;1.60;;;1.50;;
16099;SDS011;8154;50.830;12.082;2023-04-06T01:09:52;1.58;;;1.48;;
16099;SDS011;8154;50.830;12.082;2023-04-06T01:12:29;1.70;;;1.60;;
16099;SDS011;8154;50.830;12.082;2023-04-06T01:14:59;1.52;;;1.42;;
16099;SDS011;8154;50.830;12.082;2023-04-06T01:17:26;1.50;;;1.40;;
16099;SDS011;8154;50.830;12.082;2023-04-06T01:19:58;1.50;;;1.40;;
16099;SDS011;8154;50.830;12.082;2023-04-06T01:22:29;1.40;;;1.30;;
16099;SDS011;8154;50.830;12.082;2023-04-06T01:25:15;1.60;;;1.50;;
16099;SDS011;8154;50.830;12.082;2023-04-06T01:28:01;1.30;;;1.30;;
16099;SDS011;8154;50.830;12.082;2023-04-06T01:30:46;1.60;;;1.38;;
16099;SDS011;8154;50.830;12.082;2023-04-06T01:33:32;1.60;;;1.50;;
16099;SDS011;8154;50.830;12.082;2023-04-06T01:36:18;1.50;;;1.40;;
16099;SDS011;8154;50.830;12.082;2023-04-06T01:38:47;1.60;;;1.50;;
16099;SDS011;8154;50.830;12.082;2023-04-06T01:41:19;1.60;;;1.50;;
16099;SDS011;8154;50.830;12.082;2023-04-06T01:44:05;1.50;;;1.40;;
16099;SDS011;8154;50.830;12.082;2023-04-06T01:46:51;1.52;;;1.42;;
16099;SDS011;8154;50.830;12.082;2023-04-06T01:49:36;1.63;;;1.52;;
16099;SDS011;8154;50.830;12.082;2023-04-06T01:52:12;1.40;;;1.30;;
16099;SDS011;8154;50.830;12.082;2023-04-06T01:54:40;1.52;;;1.42;;
16099;SDS011;8154;50.830;12.082;2023-04-06T01:57:07;1.42;;;1.33;;
16099;SDS011;8154;50.830;12.082;2023-04-06T01:59:34;1.52;;;1.42;;
16099;SDS011;8154;50.830;12.082;2023-04-06T02:02:01;1.60;;;1.50;;
16099;SDS011;8154;50.830;12.082;2023-04-06T02:04:27;1.50;;;1.40;;
16099;SDS011;8154;50.830;12.082;2023-04-06T02:06:55;1.48;;;1.38;;
16099;SDS011;8154;50.830;12.082;2023-04-06T02:09:21;1.50;;;1.40;;
16099;SDS011;8154;50.830;12.082;2023-04-06T02:11:47;1.38;;;1.27;;
16099;SDS011;8154;50.830;12.082;2023-04-06T02:14:13;1.60;;;1.50;;
16099;SDS011;8154;50.830;12.082;2023-04-06T02:16:40;1.55;;;1.45;;
16099;SDS011;8154;50.830;12.082;2023-04-06T02:19:06;1.50;;;1.40;;
16099;SDS011;8154;50.830;12.082;2023-04-06T02:21:33;1.48;;;1.38;;
16099;SDS011;8154;50.830;12.082;2023-04-06T02:23:59;1.55;;;1.45;;
16099;SDS011;8154;50.830;12.082;2023-04-06T02:26:25;1.50;;;1.40;;
16099;SDS011;8154;50.830;12.082;2023-04-06T02:28:51;1.50;;;1.40;;
16099;SDS011;8154;50.830;12.082;2023-04-06T02:31:17;1.40;;;1.30;;
16099;SDS011;8154;50.830;12.082;2023-04-06T02:33:43;1.45;;;1.35;;
16099;SDS011;8154;50.830;12.082;2023-04-06T02:36:09;1.20;;;1.20;;
16099;SDS011;8154;50.830;12.082;2023-04-06T02:38:35;1.30;;;1.20;;
16099;SDS011;8154;50.830;12.082;2023-04-06T02:41:01;1.38;;;1.27;;
16099;SDS011;8154;50.830;12.082;2023-04-06T02:43:27;1.38;;;1.27;;
16099;SDS011;8154;50.830;12.082;2023-04-06T02:45:53;1.40;;;1.30;;
16099;SDS011;8154;50.830;12.082;2023-04-06T02:48:20;1.50;;;1.40;;
16099;SDS011;8154;50.830;12.082;2023-04-06T02:50:46;1.50;;;1.40;;
16099;SDS011;8154;50.830;12.082;2023-04-06T02:53:12;1.45;;;1.35;;
16099;SDS011;8154;50.830;12.082;2023-04-06T02:55:38;1.42;;;1.33;;
16099;SDS011;8154;50.830;12.082;2023-04-06T02:58:04;1.33;;;1.23;;
16099;SDS011;8154;50.830;12.082;2023-04-06T03:00:31;1.40;;;1.30;;
16099;SDS011;8154;50.830;12.082;2023-04-06T03:02:57;1.50;;;1.40;;
16099;SDS011;8154;50.830;12.082;2023-04-06T03:05:33;1.55;;;1.30;;
16099;SDS011;8154;50.830;12.082;2023-04-06T03:07:59;1.40;;;1.30;;
16099;SDS011;8154;50.830;12.082;2023-04-06T03:10:25;1.42;;;1.33;;
16099;SDS011;8154;50.830;12.082;2023-04-06T03:12:51;1.50;;;1.40;;
16099;SDS011;8154;50.830;12.082;2023-04-06T03:15:17;1.50;;;1.40;;
16099;SDS011;8154;50.830;12.082;2023-04-06T03:17:43;1.40;;;1.30;;
16099;SDS011;8154;50.830;12.082;2023-04-06T03:20:09;1.20;;;1.20;;
16099;SDS011;8154;50.830;12.082;2023-04-06T03:22:35;1.40;;;1.30;;
16099;SDS011;8154;50.830;12.082;2023-04-06T03:25:01;1.40;;;1.30;;
16099;SDS011;8154;50.830;12.082;2023-04-06T03:27:27;1.40;;;1.30;;
16099;SDS011;8154;50.830;12.082;2023-04-06T03:29:53;1.30;;;1.20;;
16099;SDS011;8154;50.830;12.082;2023-04-06T03:32:20;1.25;;;1.20;;
16099;SDS011;8154;50.830;12.082;2023-04-06T03:34:46;1.40;;;1.30;;
16099;SDS011;8154;50.830;12.082;2023-04-06T03:37:12;1.45;;;1.35;;
16099;SDS011;8154;50.830;12.082;2023-04-06T03:39:38;1.10;;;1.10;;
16099;SDS011;8154;50.830;12.082;2023-04-06T03:42:04;1.40;;;1.30;;
16099;SDS011;8154;50.830;12.082;2023-04-06T03:44:30;1.48;;;1.38;;
16099;SDS011;8154;50.830;12.082;2023-04-06T03:46:56;1.40;;;1.30;;
16099;SDS011;8154;50.830;12.082;2023-04-06T03:49:22;1.25;;;1.20;;
16099;SDS011;8154;50.830;12.082;2023-04-06T03:51:48;1.40;;;1.30;;
16099;SDS011;8154;50.830;12.082;2023-04-06T03:54:14;1.52;;;1.42;;
16099;SDS011;8154;50.830;12.082;2023-04-06T03:56:41;1.30;;;1.20;;
16099;SDS011;8154;50.830;12.082;2023-04-06T03:59:07;1.40;;;1.30;;
16099;SDS011;8154;50.830;12.082;2023-04-06T04:01:33;1.30;;;1.20;;
16099;SDS011;8154;50.830;12.082;2023-04-06T04:03:59;1.40;;;1.30;;
16099;SDS011;8154;50.830;12.082;2023-04-06T04:06:26;1.30;;;1.20;;
16099;SDS011;8154;50.830;12.082;2023-04-06T04:08:52;1.42;;;1.33;;
16099;SDS011;8154;50.830;12.082;2023-04-06T04:11:18;1.38;;;1.27;;
16099;SDS011;8154;50.830;12.082;2023-04-06T04:13:44;1.30;;;1.20;;
16099;SDS011;8154;50.830;12.082;2023-04-06T04:16:10;1.50;;;1.40;;
16099;SDS011;8154;50.830;12.082;2023-04-06T04:18:36;1.30;;;1.20;;
16099;SDS011;8154;50.830;12.082;2023-04-06T04:21:02;1.35;;;1.25;;
16099;SDS011;8154;50.830;12.082;2023-04-06T04:23:28;1.42;;;1.33;;
16099;SDS011;8154;50.830;12.082;2023-04-06T04:25:54;1.15;;;1.13;;
16099;SDS011;8154;50.830;12.082;2023-04-06T04:28:21;1.13;;;1.13;;
16099;SDS011;8154;50.830;12.082;2023-04-06T04:30:47;1.42;;;1.33;;
16099;SDS011;8154;50.830;12.082;2023-04-06T04:33:13;1.45;;;1.35;;
16099;SDS011;8154;50.830;12.082;2023-04-06T04:35:39;1.52;;;1.42;;
16099;SDS011;8154;50.830;12.082;2023-04-06T04:38:05;1.50;;;1.40;;
16099;SDS011;8154;50.830;12.082;2023-04-06T04:40:32;1.50;;;1.40;;
16099;SDS011;8154;50.830;12.082;2023-04-06T04:42:58;1.60;;;1.50;;
16099;SDS011;8154;50.830;12.082;2023-04-06T04:45:24;1.52;;;1.42;;
16099;SDS011;8154;50.830;12.082;2023-04-06T04:47:50;1.60;;;1.50;;
16099;SDS011;8154;50.830;12.082;2023-04-06T04:50:16;1.60;;;1.50;;
16099;SDS011;8154;50.830;12.082;2023-04-06T04:52:42;1.60;;;1.50;;
16099;SDS011;8154;50.830;12.082;2023-04-06T04:55:09;1.63;;;1.52;;
16099;SDS011;8154;50.830;12.082;2023-04-06T04:57:35;1.60;;;1.50;;
16099;SDS011;8154;50.830;12.082;2023-04-06T05:00:01;1.60;;;1.50;;
16099;SDS011;8154;50.830;12.082;2023-04-06T05:02:27;1.60;;;1.50;;
16099;SDS011;8154;50.830;12.082;2023-04-06T05:04:54;1.65;;;1.55;;
16099;SDS011;8154;50.830;12.082;2023-04-06T05:07:20;1.77;;;1.67;;
16099;SDS011;8154;50.830;12.082;2023-04-06T05:09:46;1.50;;;1.40;;
16099;SDS011;8154;50.830;12.082;2023-04-06T05:12:13;1.70;;;1.60;;
16099;SDS011;8154;50.830;12.082;2023-04-06T05:14:39;1.50;;;1.40;;
16099;SDS011;8154;50.830;12.082;2023-04-06T05:17:06;1.50;;;1.40;;
16099;SDS011;8154;50.830;12.082;2023-04-06T05:19:32;1.63;;;1.52;;
16099;SDS011;8154;50.830;12.082;2023-04-06T05:21:58;1.67;;;1.58;;
16099;SDS011;8154;50.830;12.082;2023-04-06T05:24:24;1.50;;;1.40;;
16099;SDS011;8154;50.830;12.082;2023-04-06T05:26:51;1.70;;;1.60;;
16099;SDS011;8154;50.830;12.082;2023-04-06T05:29:17;1.58;;;1.48;;
16099;SDS011;8154;50.830;12.082;2023-04-06T05:31:44;1.60;;;1.50;;
16099;SDS011;8154;50.830;12.082;2023-04-06T05:34:10;1.60;;;1.50;;
16099;SDS011;8154;50.830;12.082;2023-04-06T05:36:38;1.60;;;1.50;;
16099;SDS011;8154;50.830;12.082;2023-04-06T05:39:06;1.90;;;1.70;;
16099;SDS011;8154;50.830;12.082;2023-04-06T05:41:32;1.50;;;1.40;;
16099;SDS011;8154;50.830;12.082;2023-04-06T05:43:58;1.50;;;1.40;;
16099;SDS011;8154;50.830;12.082;2023-04-06T05:46:24;1.60;;;1.50;;
16099;SDS011;8154;50.830;12.082;2023-04-06T05:48:51;1.73;;;1.63;;
16099;SDS011;8154;50.830;12.082;2023-04-06T05:51:17;1.50;;;1.40;;
16099;SDS011;8154;50.830;12.082;2023-04-06T05:53:43;1.40;;;1.30;;
16099;SDS011;8154;50.830;12.082;2023-04-06T05:56:09;1.65;;;1.55;;
16099;SDS011;8154;50.830;12.082;2023-04-06T05:58:35;1.40;;;1.30;;
16099;SDS011;8154;50.830;12.082;2023-04-06T06:01:01;1.60;;;1.50;;
16099;SDS011;8154;50.830;12.082;2023-04-06T06:03:28;1.50;;;1.40;;
16099;SDS011;8154;50.830;12.082;2023-04-06T06:06:04;1.48;;;1.38;;
16099;SDS011;8154;50.830;12.082;2023-04-06T06:08:30;1.55;;;1.45;;
16099;SDS011;8154;50.830;12.082;2023-04-06T06:10:57;1.58;;;1.48;;
16099;SDS011;8154;50.830;12.082;2023-04-06T06:13:23;1.55;;;1.45;;
16099;SDS011;8154;50.830;12.082;2023-04-06T06:15:49;1.50;;;1.40;;
16099;SDS011;8154;50.830;12.082;2023-04-06T06:18:16;1.80;;;1.70;;
16099;SDS011;8154;50.830;12.082;2023-04-06T06:20:42;1.40;;;1.30;;
16099;SDS011;8154;50.830;12.082;2023-04-06T06:23:08;1.50;;;1.40;;
16099;SDS011;8154;50.830;12.082;2023-04-06T06:25:34;1.42;;;1.33;;
16099;SDS011;8154;50.830;12.082;2023-04-06T06:28:00;1.30;;;1.20;;
16099;SDS011;8154;50.830;12.082;2023-04-06T06:30:27;1.40;;;1.30;;
16099;SDS011;8154;50.830;12.082;2023-04-06T06:32:53;1.40;;;1.30;;
16099;SDS011;8154;50.830;12.082;2023-04-06T06:35:19;1.50;;;1.40;;
16099;SDS011;8154;50.830;12.082;2023-04-06T06:37:49;1.17;;;1.10;;
16099;SDS011;8154;50.830;12.082;2023-04-06T06:40:15;1.50;;;1.40;;
16099;SDS011;8154;50.830;12.082;2023-04-06T06:42:43;1.50;;;1.40;;
16099;SDS011;8154;50.830;12.082;2023-04-06T06:45:09;1.58;;;1.48;;
16099;SDS011;8154;50.830;12.082;2023-04-06T06:47:35;1.58;;;1.48;;
16099;SDS011;8154;50.830;12.082;2023-04-06T06:50:01;1.50;;;1.40;;
16099;SDS011;8154;50.830;12.082;2023-04-06T06:52:28;1.50;;;1.40;;
16099;SDS011;8154;50.830;12.082;2023-04-06T06:54:55;1.40;;;1.30;;
16099;SDS011;8154;50.830;12.082;2023-04-06T06:57:22;1.27;;;1.25;;
16099;SDS011;8154;50.830;12.082;2023-04-06T06:59:48;1.40;;;1.30;;
16099;SDS011;8154;50.830;12.082;2023-04-06T07:02:15;1.10;;;1.10;;
16099;SDS011;8154;50.830;12.082;2023-04-06T07:04:41;1.40;;;1.30;;
16099;SDS011;8154;50.830;12.082;2023-04-06T07:07:07;1.40;;;1.30;;
16099;SDS011;8154;50.830;12.082;2023-04-06T07:09:34;1.40;;;1.30;;
16099;SDS011;8154;50.830;12.082;2023-04-06T09:15:02;1.20;;;1.20;;
16099;SDS011;8154;50.830;12.082;2023-04-06T09:17:29;1.10;;;1.10;;
16099;SDS011;8154;50.830;12.082;2023-04-06T09:20:02;1.10;;;1.10;;
16099;SDS011;8154;50.830;12.082;2023-04-06T09:22:35;1.20;;;1.10;;
16099;SDS011;8154;50.830;12.082;2023-04-06T09:25:03;1.10;;;1.10;;
16099;SDS011;8154;50.830;12.082;2023-04-06T09:27:33;1.30;;;1.20;;
16099;SDS011;8154;50.830;12.082;2023-04-06T09:30:08;1.20;;;1.20;;
16099;SDS011;8154;50.830;12.082;2023-04-06T09:35:12;1.10;;;1.10;;
16099;SDS011;8154;50.830;12.082;2023-04-06T09:37:39;1.30;;;1.20;;
16099;SDS011;8154;50.830;12.082;2023-04-06T09:40:05;1.08;;;1.08;;
16099;SDS011;8154;50.830;12.082;2023-04-06T09:42:33;1.10;;;1.10;;
16099;SDS011;8154;50.830;12.082;2023-04-06T09:45:01;1.10;;;1.08;;
16099;SDS011;8154;50.830;12.082;2023-04-06T09:47:28;1.10;;;1.10;;
16099;SDS011;8154;50.830;12.082;2023-04-06T09:49:57;1.27;;;1.17;;
16099;SDS011;8154;50.830;12.082;2023-04-06T09:52:32;1.00;;;1.00;;
16099;SDS011;8154;50.830;12.082;2023-04-06T09:55:03;1.00;;;1.00;;
16099;SDS011;8154;50.830;12.082;2023-04-06T09:57:53;1.17;;;1.10;;
16099;SDS011;8154;50.830;12.082;2023-04-06T10:00:21;0.98;;;0.98;;
16099;SDS011;8154;50.830;12.082;2023-04-06T10:06:04;1.00;;;1.00;;
16099;SDS011;8154;50.830;12.082;2023-04-06T10:08:32;1.27;;;1.17;;
16099;SDS011;8154;50.830;12.082;2023-04-06T10:11:01;1.00;;;1.00;;
16099;SDS011;8154;50.830;12.082;2023-04-06T10:13:28;1.10;;;1.10;;
16099;SDS011;8154;50.830;12.082;2023-04-06T10:15:54;1.08;;;1.08;;
16099;SDS011;8154;50.830;12.082;2023-04-06T10:18:20;1.10;;;1.10;;
16099;SDS011;8154;50.830;12.082;2023-04-06T10:20:55;1.00;;;1.00;;
16099;SDS011;8154;50.830;12.082;2023-04-06T10:23:29;1.08;;;1.08;;
16099;SDS011;8154;50.830;12.082;2023-04-06T10:25:59;0.93;;;0.93;;
16099;SDS011;8154;50.830;12.082;2023-04-06T10:28:34;1.10;;;1.10;;
16099;SDS011;8154;50.830;12.082;2023-04-06T10:31:02;0.93;;;0.93;;
16099;SDS011;8154;50.830;12.082;2023-04-06T10:33:30;0.90;;;0.90;;
16099;SDS011;8154;50.830;12.082;2023-04-06T10:35:57;1.10;;;1.10;;
16099;SDS011;8154;50.830;12.082;2023-04-06T10:38:34;1.00;;;1.00;;
16099;SDS011;8154;50.830;12.082;2023-04-06T10:41:05;1.00;;;1.00;;
16099;SDS011;8154;50.830;12.082;2023-04-06T10:43:34;1.02;;;1.02;;
16099;SDS011;8154;50.830;12.082;2023-04-06T10:46:03;1.10;;;1.10;;
16099;SDS011;8154;50.830;12.082;2023-04-06T10:48:40;1.00;;;1.00;;
16099;SDS011;8154;50.830;12.082;2023-04-06T10:51:10;0.95;;;0.95;;
16099;SDS011;8154;50.830;12.082;2023-04-06T10:53:38;1.05;;;1.00;;
16099;SDS011;8154;50.830;12.082;2023-04-06T10:56:09;1.00;;;1.00;;
16099;SDS011;8154;50.830;12.082;2023-04-06T10:58:49;1.10;;;1.10;;
16099;SDS011;8154;50.830;12.082;2023-04-06T11:01:25;1.10;;;1.10;;
16099;SDS011;8154;50.830;12.082;2023-04-06T11:04:00;1.00;;;1.00;;
16099;SDS011;8154;50.830;12.082;2023-04-06T11:06:28;0.90;;;0.90;;
16099;SDS011;8154;50.830;12.082;2023-04-06T11:09:02;1.10;;;1.00;;
16099;SDS011;8154;50.830;12.082;2023-04-06T11:11:28;1.15;;;1.05;;
16099;SDS011;8154;50.830;12.082;2023-04-06T12:15:24;1.23;;;1.13;;
16099;SDS011;8154;50.830;12.082;2023-04-06T12:17:50;1.45;;;1.35;;
16099;SDS011;8154;50.830;12.082;2023-04-06T12:20:17;1.10;;;1.10;;
16099;SDS011;8154;50.830;12.082;2023-04-06T12:22:43;1.20;;;1.15;;
16099;SDS011;8154;50.830;12.082;2023-04-06T12:25:09;1.30;;;1.20;;
16099;SDS011;8154;50.830;12.082;2023-04-06T12:27:37;1.10;;;1.10;;
16099;SDS011;8154;50.830;12.082;2023-04-06T12:30:03;1.30;;;1.20;;
16099;SDS011;8154;50.830;12.082;2023-04-06T12:32:42;1.40;;;1.30;;
16099;SDS011;8154;50.830;12.082;2023-04-06T12:35:11;1.20;;;1.20;;
16099;SDS011;8154;50.830;12.082;2023-04-06T15:13:55;1.08;;;1.08;;
16099;SDS011;8154;50.830;12.082;2023-04-06T15:16:22;1.10;;;1.10;;
16099;SDS011;8154;50.830;12.082;2023-04-06T15:18:49;1.25;;;1.15;;
16099;SDS011;8154;50.830;12.082;2023-04-06T15:21:15;1.10;;;1.10;;
16099;SDS011;8154;50.830;12.082;2023-04-06T15:23:41;1.10;;;1.10;;
16099;SDS011;8154;50.830;12.082;2023-04-06T15:26:07;1.00;;;1.00;;
16099;SDS011;8154;50.830;12.082;2023-04-06T15:28:33;1.08;;;1.08;;
16099;SDS011;8154;50.830;12.082;2023-04-06T15:31:00;1.00;;;1.00;;
16099;SDS011;8154;50.830;12.082;2023-04-06T15:33:31;1.05;;;1.05;;
16099;SDS011;8154;50.830;12.082;2023-04-06T15:35:57;0.90;;;0.90;;
16099;SDS011;8154;50.830;12.082;2023-04-06T15:38:23;1.05;;;1.05;;
16099;SDS011;8154;50.830;12.082;2023-04-06T15:40:49;1.25;;;1.15;;
16099;SDS011;8154;50.830;12.082;2023-04-06T15:43:15;1.10;;;1.10;;
16099;SDS011;8154;50.830;12.082;2023-04-06T15:45:42;1.00;;;1.00;;
16099;SDS011;8154;50.830;12.082;2023-04-06T15:48:08;1.10;;;1.10;;
16099;SDS011;8154;50.830;12.082;2023-04-06T15:50:34;1.10;;;1.10;;
16099;SDS011;8154;50.830;12.082;2023-04-06T15:53:01;1.10;;;1.10;;
16099;SDS011;8154;50.830;12.082;2023-04-06T15:55:27;1.10;;;1.10;;
16099;SDS011;8154;50.830;12.082;2023-04-06T15:57:53;1.20;;;1.20;;
16099;SDS011;8154;50.830;12.082;2023-04-06T16:00:19;1.10;;;1.10;;
16099;SDS011;8154;50.830;12.082;2023-04-06T16:02:45;1.00;;;1.00;;
16099;SDS011;8154;50.830;12.082;2023-04-06T16:05:15;1.10;;;1.10;;
16099;SDS011;8154;50.830;12.082;2023-04-06T16:07:41;1.10;;;1.10;;
16099;SDS011;8154;50.830;12.082;2023-04-06T16:10:07;1.02;;;1.02;;
16099;SDS011;8154;50.830;12.082;2023-04-06T16:12:34;1.20;;;1.17;;
16099;SDS011;8154;50.830;12.082;2023-04-06T16:15:00;1.27;;;1.20;;
16099;SDS011;8154;50.830;12.082;2023-04-06T16:17:26;1.02;;;1.02;;
16099;SDS011;8154;50.830;12.082;2023-04-06T16:19:53;1.10;;;1.10;;
16099;SDS011;8154;50.830;12.082;2023-04-06T16:22:19;1.20;;;1.20;;
16099;SDS011;8154;50.830;12.082;2023-04-06T16:24:45;1.02;;;1.02;;
16099;SDS011;8154;50.830;12.082;2023-04-06T16:27:11;1.20;;;1.20;;
16099;SDS011;8154;50.830;12.082;2023-04-06T16:29:37;1.00;;;1.00;;
16099;SDS011;8154;50.830;12.082;2023-04-06T16:32:03;1.20;;;1.20;;
16099;SDS011;8154;50.830;12.082;2023-04-06T16:34:30;1.10;;;1.10;;
16099;SDS011;8154;50.830;12.082;2023-04-06T16:36:59;1.08;;;1.08;;
16099;SDS011;8154;50.830;12.082;2023-04-06T16:39:26;1.20;;;1.20;;
16099;SDS011;8154;50.830;12.082;2023-04-06T16:41:52;1.10;;;1.10;;
16099;SDS011;8154;50.830;12.082;2023-04-06T16:44:18;1.20;;;1.20;;
16099;SDS011;8154;50.830;12.082;2023-04-06T16:47:04;1.10;;;1.10;;
16099;SDS011;8154;50.830;12.082;2023-04-06T16:49:30;1.00;;;1.00;;
16099;SDS011;8154;50.830;12.082;2023-04-06T16:51:56;1.00;;;1.00;;
16099;SDS011;8154;50.830;12.082;2023-04-06T16:54:34;1.20;;;1.10;;
16099;SDS011;8154;50.830;12.082;2023-04-06T16:57:00;1.00;;;1.00;;
16099;SDS011;8154;50.830;12.082;2023-04-06T16:59:27;0.90;;;0.90;;
16099;SDS011;8154;50.830;12.082;2023-04-06T17:01:56;1.20;;;1.10;;
16099;SDS011;8154;50.830;12.082;2023-04-06T17:04:22;1.30;;;1.20;;
16099;SDS011;8154;50.830;12.082;2023-04-06T17:06:48;1.25;;;1.20;;
16099;SDS011;8154;50.830;12.082;2023-04-06T17:09:14;1.00;;;1.00;;
16099;SDS011;8154;50.830;12.082;2023-04-06T17:11:41;1.00;;;1.00;;
16099;SDS011;8154;50.830;12.082;2023-04-06T18:15:33;1.20;;;1.10;;
16099;SDS011;8154;50.830;12.082;2023-04-06T18:18:00;1.30;;;1.20;;
16099;SDS011;8154;50.830;12.082;2023-04-06T18:20:26;1.10;;;1.10;;
16099;SDS011;8154;50.830;12.082;2023-04-06T18:22:52;1.10;;;1.10;;
16099;SDS011;8154;50.830;12.082;2023-04-06T18:25:18;1.33;;;1.23;;
16099;SDS011;8154;50.830;12.082;2023-04-06T18:27:45;1.10;;;1.10;;
16099;SDS011;8154;50.830;12.082;2023-04-06T18:30:12;1.10;;;1.10;;
16099;SDS011;8154;50.830;12.082;2023-04-06T18:32:38;1.30;;;1.20;;
16099;SDS011;8154;50.830;12.082;2023-04-06T18:35:05;1.40;;;1.30;;
16099;SDS011;8154;50.830;12.082;2023-04-06T18:37:33;1.00;;;1.00;;
16099;SDS011;8154;50.830;12.082;2023-04-06T18:40:01;1.20;;;1.17;;
16099;SDS011;8154;50.830;12.082;2023-04-06T18:42:27;1.13;;;1.10;;
16099;SDS011;8154;50.830;12.082;2023-04-06T18:44:53;1.10;;;1.10;;
16099;SDS011;8154;50.830;12.082;2023-04-06T18:47:19;1.40;;;1.30;;
16099;SDS011;8154;50.830;12.082;2023-04-06T18:49:46;1.10;;;1.10;;
16099;SDS011;8154;50.830;12.082;2023-04-06T18:52:12;1.30;;;1.20;;
16099;SDS011;8154;50.830;12.082;2023-04-06T18:54:38;1.10;;;1.10;;
16099;SDS011;8154;50.830;12.082;2023-04-06T18:57:05;1.10;;;1.10;;
16099;SDS011;8154;50.830;12.082;2023-04-06T18:59:31;1.83;;;1.15;;
16099;SDS011;8154;50.830;12.082;2023-04-06T19:01:57;1.00;;;1.00;;
16099;SDS011;8154;50.830;12.082;2023-04-06T19:04:23;1.08;;;1.08;;
16099;SDS011;8154;50.830;12.082;2023-04-06T19:06:50;0.95;;;0.95;;
16099;SDS011;8154;50.830;12.082;2023-04-06T19:09:16;1.23;;;1.13;;
16099;SDS011;8154;50.830;12.082;2023-04-06T19:11:42;1.10;;;1.10;;
16099;SDS011;8154;50.830;12.082;2023-04-06T19:14:08;1.25;;;1.20;;
16099;SDS011;8154;50.830;12.082;2023-04-06T22:17:18;1.67;;;1.58;;
16099;SDS011;8154;50.830;12.082;2023-04-06T22:19:44;1.70;;;1.60;;
16099;SDS011;8154;50.830;12.082;2023-04-06T22:22:10;1.60;;;1.50;;
16099;SDS011;8154;50.830;12.082;2023-04-06T22:24:36;1.65;;;1.55;;
16099;SDS011;8154;50.830;12.082;2023-04-06T22:27:02;1.50;;;1.40;;
16099;SDS011;8154;50.830;12.082;2023-04-06T22:29:29;1.52;;;1.42;;
16099;SDS011;8154;50.830;12.082;2023-04-06T22:31:55;1.70;;;1.60;;
16099;SDS011;8154;50.830;12.082;2023-04-06T22:34:21;1.70;;;1.60;;
16099;SDS011;8154;50.830;12.082;2023-04-06T22:36:47;1.52;;;1.42;;
16099;SDS011;8154;50.830;12.082;2023-04-06T22:39:13;1.65;;;1.55;;
16099;SDS011;8154;50.830;12.082;2023-04-06T22:41:40;1.60;;;1.50;;
16099;SDS011;8154;50.830;12.082;2023-04-06T22:44:06;1.70;;;1.60;;
16099;SDS011;8154;50.830;12.082;2023-04-06T22:46:32;1.45;;;1.35;;
16099;SDS011;8154;50.830;12.082;2023-04-06T22:48:59;1.55;;;1.45;;
16099;SDS011;8154;50.830;12.082;2023-04-06T22:51:25;1.50;;;1.40;;
16099;SDS011;8154;50.830;12.082;2023-04-06T22:53:53;1.73;;;1.63;;
16099;SDS011;8154;50.830;12.082;2023-04-06T22:56:18;1.60;;;1.50;;
16099;SDS011;8154;50.830;12.082;2023-04-06T22:58:46;1.70;;;1.60;;
16099;SDS011;8154;50.830;12.082;2023-04-06T23:01:12;1.65;;;1.55;;
16099;SDS011;8154;50.830;12.082;2023-04-06T23:03:38;1.70;;;1.60;;
16099;SDS011;8154;50.830;12.082;2023-04-06T23:06:04;1.58;;;1.48;;
16099;SDS011;8154;50.830;12.082;2023-04-06T23:08:31;1.70;;;1.60;;
16099;SDS011;8154;50.830;12.082;2023-04-06T23:10:57;1.60;;;1.50;;
16099;SDS011;8154;50.830;12.082;2023-04-06T23:13:23;1.73;;;1.63;;
